createdAt,value
2022-10-21T00:00:18.766Z,87.81
2022-10-21T00:03:05.705Z,87.84
2022-10-21T00:05:32.561Z,87.72
2022-10-21T00:07:59.145Z,87.73
2022-10-21T00:10:25.966Z,87.88
2022-10-21T00:12:53.043Z,87.93
2022-10-21T00:15:19.637Z,88.16
2022-10-21T00:17:46.539Z,88.19
2022-10-21T00:20:13.437Z,88.15
2022-10-21T00:22:40.810Z,88.13
2022-10-21T00:25:08.564Z,88.31
2022-10-21T00:27:36.028Z,88.49
2022-10-21T00:30:06.090Z,88.50
2022-10-21T00:32:33.227Z,88.56
2022-10-21T00:34:59.969Z,88.68
2022-10-21T00:37:30.377Z,88.75
2022-10-21T00:39:57.618Z,88.85
2022-10-21T00:42:33.290Z,89.01
2022-10-21T00:45:05.940Z,89.02
2022-10-21T00:47:51.561Z,89.04
2022-10-21T00:50:56.622Z,89.05
2022-10-21T00:53:24.568Z,89.03
2022-10-21T00:55:59.709Z,89.00
2022-10-21T00:58:36.938Z,89.07
2022-10-21T01:01:06.798Z,88.99
2022-10-21T01:03:35.553Z,88.94
2022-10-21T01:06:07.198Z,89.03
2022-10-21T01:08:34.787Z,89.01
2022-10-21T01:11:02.394Z,89.02
2022-10-21T01:13:39.916Z,89.04
2022-10-21T01:16:28.362Z,89.03
2022-10-21T01:19:35.371Z,89.02
2022-10-21T01:22:22.410Z,89.10
2022-10-21T01:24:59.880Z,89.17
2022-10-21T01:27:47.238Z,89.20
2022-10-21T01:30:16.589Z,89.30
2022-10-21T01:33:16.677Z,89.37
2022-10-21T01:36:00.258Z,89.40
2022-10-21T01:38:42.074Z,89.39
2022-10-21T01:41:38.836Z,89.42
2022-10-21T01:44:26.878Z,89.34
2022-10-21T01:47:08.690Z,89.46
2022-10-21T01:49:44.870Z,89.34
2022-10-21T01:52:14.738Z,89.25
2022-10-21T01:54:47.059Z,89.20
2022-10-21T01:57:18.255Z,89.23
2022-10-21T01:59:46.192Z,89.37
2022-10-21T02:02:17.275Z,89.40
2022-10-21T02:04:44.953Z,89.53
2022-10-21T02:07:11.607Z,89.56
2022-10-21T02:09:38.215Z,89.50
2022-10-21T02:12:07.309Z,89.55
2022-10-21T02:14:40.875Z,89.65
2022-10-21T02:17:13.290Z,89.72
2022-10-21T02:19:40.551Z,89.65
2022-10-21T02:22:11.612Z,89.62
2022-10-21T02:24:47.702Z,89.54
2022-10-21T02:27:14.315Z,89.45
2022-10-21T02:29:43.414Z,89.40
2022-10-21T02:32:32.857Z,89.42
2022-10-21T02:35:06.023Z,89.37
2022-10-21T02:37:45.364Z,89.25
2022-10-21T02:40:18.538Z,89.27
2022-10-21T02:42:54.049Z,89.22
2022-10-21T02:45:21.517Z,89.18
2022-10-21T02:47:49.235Z,89.09
2022-10-21T02:50:16.661Z,89.16
2022-10-21T02:52:43.344Z,89.24
2022-10-21T02:55:09.940Z,89.26
2022-10-21T02:57:36.921Z,89.33
2022-10-21T03:00:06.165Z,89.19
2022-10-21T03:02:33.074Z,89.20
2022-10-21T03:04:59.906Z,89.13
2022-10-21T03:07:26.460Z,88.93
2022-10-21T03:09:53.118Z,88.65
2022-10-21T03:12:19.754Z,88.32
2022-10-21T03:14:46.210Z,88.10
2022-10-21T03:17:13.608Z,87.94
2022-10-21T03:19:40.162Z,87.71
2022-10-21T03:22:06.877Z,87.47
2022-10-21T03:24:33.594Z,87.36
2022-10-21T03:27:00.265Z,87.30
2022-10-21T03:29:26.755Z,87.28
2022-10-21T03:31:53.475Z,87.22
2022-10-21T03:34:20.101Z,87.32
2022-10-21T03:36:46.904Z,87.31
2022-10-21T03:39:14.392Z,87.25
2022-10-21T03:41:40.995Z,87.32
2022-10-21T03:44:07.889Z,87.31
2022-10-21T03:46:34.450Z,87.31
2022-10-21T03:49:04.910Z,87.38
2022-10-21T03:51:34.240Z,87.38
2022-10-21T03:54:01.073Z,87.38
2022-10-21T03:56:28.196Z,87.48
2022-10-21T03:58:58.545Z,87.56
2022-10-21T04:01:26.036Z,87.61
2022-10-21T04:03:53.195Z,87.68
2022-10-21T04:06:20.433Z,87.67
2022-10-21T04:08:47.605Z,87.82
2022-10-21T04:11:14.314Z,87.82
2022-10-21T04:13:40.993Z,87.84
2022-10-21T04:16:14.755Z,87.84
2022-10-21T04:18:42.138Z,87.86
2022-10-21T04:21:08.997Z,87.87
2022-10-21T04:23:36.520Z,87.85
2022-10-21T04:26:04.482Z,87.94
2022-10-21T04:28:30.974Z,88.00
2022-10-21T04:30:57.545Z,88.12
2022-10-21T04:33:24.318Z,88.26
2022-10-21T04:35:53.691Z,88.23
2022-10-21T04:38:22.024Z,88.35
2022-10-21T04:40:59.675Z,88.29
2022-10-21T04:43:26.937Z,88.52
2022-10-21T04:45:54.443Z,88.56
2022-10-21T04:48:21.771Z,88.51
2022-10-21T04:50:50.206Z,88.60
2022-10-21T04:53:17.215Z,88.61
2022-10-21T04:55:44.291Z,88.76
2022-10-21T04:58:11.003Z,88.77
2022-10-21T05:00:37.612Z,88.79
2022-10-21T05:03:25.457Z,88.82
2022-10-21T05:05:52.655Z,88.73
2022-10-21T05:08:20.717Z,88.68
2022-10-21T05:10:48.090Z,88.67
2022-10-21T05:13:15.244Z,88.58
2022-10-21T05:15:41.868Z,88.38
2022-10-21T05:18:11.336Z,88.26
2022-10-21T05:20:37.903Z,88.06
2022-10-21T05:23:04.405Z,88.10
2022-10-21T05:25:34.148Z,88.12
2022-10-21T05:28:01.329Z,88.16
2022-10-21T05:30:27.852Z,88.19
2022-10-21T05:32:54.514Z,88.28
2022-10-21T05:35:21.105Z,88.25
2022-10-21T05:37:47.680Z,88.27
2022-10-21T05:40:14.237Z,88.26
2022-10-21T05:42:41.212Z,88.18
2022-10-21T05:45:08.893Z,88.05
2022-10-21T05:47:35.369Z,87.74
2022-10-21T05:50:02.135Z,87.66
2022-10-21T05:52:28.936Z,87.53
2022-10-21T05:54:55.879Z,87.44
2022-10-21T05:57:22.730Z,87.38
2022-10-21T05:59:49.287Z,87.03
2022-10-21T06:02:16.209Z,86.66
2022-10-21T06:04:43.016Z,86.49
2022-10-21T06:07:10.068Z,86.28
2022-10-21T06:09:37.498Z,86.03
2022-10-21T06:12:04.220Z,85.80
2022-10-21T06:14:31.030Z,85.85
2022-10-21T06:16:57.755Z,85.76
2022-10-21T06:19:24.612Z,85.54
2022-10-21T06:21:51.230Z,85.08
2022-10-21T06:24:17.835Z,85.21
2022-10-21T06:26:44.556Z,84.95
2022-10-21T06:29:15.437Z,84.75
2022-10-21T06:31:44.879Z,84.72
2022-10-21T06:34:11.724Z,84.60
2022-10-21T06:36:38.440Z,84.71
2022-10-21T06:39:07.114Z,84.73
2022-10-21T06:41:34.087Z,84.64
2022-10-21T06:44:01.184Z,84.59
2022-10-21T06:46:27.748Z,84.60
2022-10-21T06:48:54.357Z,84.54
2022-10-21T06:51:23.474Z,84.30
2022-10-21T06:53:58.691Z,83.99
2022-10-21T06:56:27.065Z,83.82
2022-10-21T06:58:57.625Z,83.57
2022-10-21T07:01:34.458Z,83.26
2022-10-21T07:04:03.961Z,82.42
2022-10-21T07:06:30.768Z,82.09
2022-10-21T07:08:58.846Z,81.72
2022-10-21T07:11:28.363Z,81.08
2022-10-21T07:13:55.774Z,80.09
2022-10-21T07:16:24.163Z,79.83
2022-10-21T07:18:52.799Z,79.33
2022-10-21T07:21:23.114Z,78.58
2022-10-21T07:23:52.515Z,78.56
2022-10-21T07:26:21.035Z,78.34
2022-10-21T07:28:48.628Z,78.50
2022-10-21T07:31:17.475Z,77.70
2022-10-21T07:33:44.452Z,77.28
2022-10-21T07:36:14.675Z,77.18
2022-10-21T07:38:46.043Z,76.61
2022-10-21T07:41:18.998Z,75.69
2022-10-21T07:43:47.066Z,74.76
2022-10-21T07:46:14.530Z,74.48
2022-10-21T07:48:41.169Z,73.82
2022-10-21T07:51:11.739Z,72.98
2022-10-21T07:53:45.372Z,72.34
2022-10-21T07:56:16.175Z,71.98
2022-10-21T07:58:45.827Z,71.73
2022-10-21T08:01:13.949Z,72.40
2022-10-21T08:03:40.810Z,72.48
2022-10-21T08:06:10.575Z,72.83
2022-10-21T08:08:38.711Z,73.36
2022-10-21T08:11:08.993Z,74.06
2022-10-21T08:13:40.951Z,74.04
2022-10-21T08:16:07.943Z,74.27
2022-10-21T08:18:34.571Z,73.71
2022-10-21T08:21:04.648Z,73.64
2022-10-21T08:23:31.567Z,73.59
2022-10-21T08:26:01.039Z,73.60
2022-10-21T08:28:33.179Z,73.84
2022-10-21T08:31:08.730Z,74.09
2022-10-21T08:33:36.509Z,74.04
2022-10-21T08:36:08.745Z,73.09
2022-10-21T08:38:35.908Z,72.37
2022-10-21T08:41:17.919Z,71.85
2022-10-21T08:43:44.625Z,72.09
2022-10-21T08:46:16.915Z,72.21
2022-10-21T08:48:56.049Z,72.25
2022-10-21T08:51:28.399Z,72.28
2022-10-21T08:54:00.535Z,71.71
2022-10-21T08:56:30.153Z,71.28
2022-10-21T08:58:57.195Z,71.23
2022-10-21T09:01:26.588Z,71.10
2022-10-21T09:04:16.445Z,70.63
2022-10-21T09:07:11.744Z,70.71
2022-10-21T09:10:09.094Z,71.33
2022-10-21T09:12:51.915Z,71.64
2022-10-21T09:15:30.596Z,70.81
2022-10-21T09:18:36.583Z,71.01
2022-10-21T09:21:27.670Z,70.83
2022-10-21T09:23:57.218Z,70.63
2022-10-21T09:26:35.514Z,70.23
2022-10-21T09:29:13.070Z,69.51
2022-10-21T09:31:39.735Z,68.87
2022-10-21T09:34:32.977Z,68.00
2022-10-21T09:37:03.151Z,66.73
2022-10-21T09:39:38.337Z,66.36
2022-10-21T09:42:11.499Z,65.62
2022-10-21T09:44:45.793Z,65.38
2022-10-21T09:47:21.480Z,64.61
2022-10-21T09:50:13.528Z,64.43
2022-10-21T09:52:46.689Z,64.42
2022-10-21T09:55:15.072Z,64.36
2022-10-21T09:57:53.917Z,63.59
2022-10-21T10:00:21.109Z,62.62
2022-10-21T10:02:48.745Z,62.43
2022-10-21T10:05:48.905Z,62.19
2022-10-21T10:08:40.493Z,60.93
2022-10-21T10:11:10.085Z,59.77
2022-10-21T10:13:43.690Z,58.23
2022-10-21T10:16:22.500Z,58.01
2022-10-21T10:18:52.252Z,57.98
2022-10-21T10:21:21.431Z,58.20
2022-10-21T10:23:49.418Z,58.14
2022-10-21T10:26:41.940Z,58.18
2022-10-21T10:29:14.494Z,57.75
2022-10-21T10:31:50.975Z,57.89
2022-10-21T10:34:22.655Z,57.98
2022-10-21T10:36:58.501Z,58.37
2022-10-21T10:39:31.496Z,58.49
2022-10-21T10:41:58.626Z,57.94
2022-10-21T10:44:39.075Z,56.39
2022-10-21T10:47:08.699Z,55.50
2022-10-21T10:49:39.166Z,53.70
2022-10-21T10:52:11.509Z,52.93
2022-10-21T10:54:40.285Z,52.75
2022-10-21T10:57:18.190Z,51.61
2022-10-21T10:59:51.832Z,51.73
2022-10-21T11:02:35.046Z,49.55
2022-10-21T11:05:10.849Z,49.09
2022-10-21T11:07:37.606Z,50.73
2022-10-21T11:10:13.244Z,50.80
2022-10-21T11:12:39.762Z,50.31
2022-10-21T11:15:12.923Z,50.07
2022-10-21T11:17:43.697Z,49.71
2022-10-21T11:20:27.559Z,50.47
2022-10-21T11:23:32.515Z,52.15
2022-10-21T11:26:15.808Z,53.07
2022-10-21T11:29:14.536Z,51.91
2022-10-21T11:32:19.743Z,49.47
2022-10-21T11:35:04.972Z,48.61
2022-10-21T11:37:46.915Z,50.24
2022-10-21T11:40:30.374Z,51.43
2022-10-21T11:43:11.589Z,50.92
2022-10-21T11:46:00.460Z,50.90
2022-10-21T11:48:32.050Z,49.22
2022-10-21T11:51:25.987Z,47.84
2022-10-21T11:54:29.927Z,47.42
2022-10-21T11:56:59.391Z,47.15
2022-10-21T11:59:37.965Z,46.57
2022-10-21T12:02:25.324Z,45.61
2022-10-21T12:05:19.465Z,46.02
2022-10-21T12:07:58.078Z,46.61
2022-10-21T12:10:36.957Z,45.57
2022-10-21T12:13:27.628Z,46.73
2022-10-21T12:16:05.735Z,48.99
2022-10-21T12:18:37.031Z,51.44
2022-10-21T12:21:03.845Z,52.70
2022-10-21T12:23:31.265Z,54.32
2022-10-21T12:26:14.728Z,55.60
2022-10-21T12:29:03.077Z,56.83
2022-10-21T12:32:03.650Z,57.91
2022-10-21T12:34:31.403Z,58.71
2022-10-21T12:36:58.303Z,59.11
2022-10-21T12:39:34.304Z,59.83
2022-10-21T12:42:27.835Z,59.79
2022-10-21T12:44:54.816Z,60.32
2022-10-21T12:47:45.016Z,60.55
2022-10-21T12:50:17.615Z,60.74
2022-10-21T12:52:49.639Z,61.00
2022-10-21T12:55:22.834Z,60.88
2022-10-21T12:58:02.357Z,61.13
2022-10-21T13:00:29.619Z,61.43
2022-10-21T13:03:02.292Z,61.94
2022-10-21T13:05:38.174Z,62.24
2022-10-21T13:08:22.285Z,62.71
2022-10-21T13:11:04.365Z,63.13
2022-10-21T13:13:41.614Z,63.37
2022-10-21T13:16:20.361Z,63.74
2022-10-21T13:18:51.900Z,64.27
2022-10-21T13:21:28.858Z,64.63
2022-10-21T13:24:15.259Z,64.79
2022-10-21T13:26:55.583Z,64.88
2022-10-21T13:29:27.795Z,65.05
2022-10-21T13:32:20.734Z,65.30
2022-10-21T13:34:50.652Z,65.23
2022-10-21T13:37:35.447Z,65.42
2022-10-21T13:40:07.278Z,65.77
2022-10-21T13:42:41.274Z,65.83
2022-10-21T13:45:32.682Z,65.73
2022-10-21T13:48:20.564Z,65.86
2022-10-21T13:50:49.338Z,65.97
2022-10-21T13:53:37.576Z,66.17
2022-10-21T13:56:07.625Z,66.59
2022-10-21T13:58:39.087Z,66.59
2022-10-21T14:01:39.105Z,66.57
2022-10-21T14:04:14.969Z,67.17
2022-10-21T14:07:04.486Z,67.28
2022-10-21T14:09:40.181Z,67.26
2022-10-21T14:12:17.244Z,67.22
2022-10-21T14:14:44.172Z,67.42
2022-10-21T14:17:23.731Z,67.29
2022-10-21T14:20:15.650Z,67.39
2022-10-21T14:22:49.661Z,67.53
2022-10-21T14:25:18.305Z,67.73
2022-10-21T14:27:47.203Z,67.87
2022-10-21T14:30:23.308Z,68.14
2022-10-21T14:32:51.558Z,68.42
2022-10-21T14:35:18.332Z,68.61
2022-10-21T14:37:46.327Z,68.58
2022-10-21T14:40:41.054Z,68.72
2022-10-21T14:43:32.554Z,69.12
2022-10-21T14:45:59.477Z,69.27
2022-10-21T14:48:30.855Z,69.27
2022-10-21T14:51:00.881Z,69.41
2022-10-21T14:53:37.161Z,69.79
2022-10-21T14:56:06.448Z,69.84
2022-10-21T14:58:37.663Z,69.95
2022-10-21T15:01:17.758Z,69.95
2022-10-21T15:03:47.652Z,70.18
2022-10-21T15:06:16.177Z,70.07
2022-10-21T15:09:07.440Z,70.37
2022-10-21T15:11:38.400Z,70.47
2022-10-21T15:14:14.511Z,70.31
2022-10-21T15:16:59.532Z,70.44
2022-10-21T15:19:43.590Z,70.74
2022-10-21T15:22:33.472Z,70.91
2022-10-21T15:25:08.680Z,70.90
2022-10-21T15:27:42.421Z,70.82
2022-10-21T15:30:12.444Z,70.74
2022-10-21T15:32:39.235Z,70.33
2022-10-21T15:35:13.327Z,70.37
2022-10-21T15:37:40.597Z,69.96
2022-10-21T15:40:08.785Z,69.68
2022-10-21T15:42:35.770Z,69.64
2022-10-21T15:45:02.641Z,69.40
2022-10-21T15:47:29.450Z,69.32
2022-10-21T15:49:56.238Z,69.20
2022-10-21T15:52:22.968Z,69.33
2022-10-21T15:54:49.915Z,69.27
2022-10-21T15:57:21.561Z,69.15
2022-10-21T15:59:48.899Z,69.25
2022-10-21T16:02:22.103Z,69.30
2022-10-21T16:04:52.456Z,69.34
2022-10-21T16:07:34.005Z,69.50
2022-10-21T16:10:03.088Z,69.59
2022-10-21T16:12:30.590Z,69.64
2022-10-21T16:14:57.175Z,69.79
2022-10-21T16:17:28.044Z,69.92
2022-10-21T16:19:54.920Z,69.92
2022-10-21T16:22:22.156Z,70.10
2022-10-21T16:24:49.038Z,70.20
2022-10-21T16:27:26.582Z,70.25
2022-10-21T16:29:58.244Z,70.24
2022-10-21T16:32:24.853Z,70.32
2022-10-21T16:34:51.515Z,70.40
2022-10-21T16:37:25.119Z,70.61
2022-10-21T16:39:52.432Z,70.70
2022-10-21T16:42:19.114Z,70.77
2022-10-21T16:44:46.343Z,70.99
2022-10-21T16:47:18.908Z,71.28
2022-10-21T16:49:47.888Z,71.44
2022-10-21T16:52:15.900Z,71.60
2022-10-21T16:54:43.419Z,71.69
2022-10-21T16:57:12.184Z,71.75
2022-10-21T16:59:38.839Z,71.82
2022-10-21T17:02:15.093Z,71.98
2022-10-21T17:04:43.190Z,72.09
2022-10-21T17:07:10.905Z,72.29
2022-10-21T17:09:37.586Z,72.38
2022-10-21T17:12:04.828Z,72.45
2022-10-21T17:14:31.590Z,72.61
2022-10-21T17:16:58.297Z,72.59
2022-10-21T17:19:24.986Z,72.59
2022-10-21T17:21:51.635Z,72.81
2022-10-21T17:24:18.286Z,72.99
2022-10-21T17:26:45.370Z,73.11
2022-10-21T17:29:12.549Z,73.22
2022-10-21T17:31:42.245Z,73.41
2022-10-21T17:34:24.055Z,73.57
2022-10-21T17:36:50.675Z,73.66
2022-10-21T17:39:17.257Z,73.63
2022-10-21T17:41:43.846Z,73.63
2022-10-21T17:44:14.014Z,73.65
2022-10-21T17:46:40.686Z,73.70
2022-10-21T17:49:08.829Z,73.84
2022-10-21T17:51:35.545Z,73.96
2022-10-21T17:54:02.215Z,74.09
2022-10-21T17:56:28.870Z,74.34
2022-10-21T17:59:00.745Z,74.52
2022-10-21T18:01:27.486Z,74.73
2022-10-21T18:03:54.210Z,74.82
2022-10-21T18:06:20.944Z,74.91
2022-10-21T18:08:47.994Z,75.20
2022-10-21T18:11:17.394Z,75.34
2022-10-21T18:13:44.849Z,75.53
2022-10-21T18:16:14.654Z,75.76
2022-10-21T18:21:20.858Z,76.05
2022-10-21T18:23:50.481Z,76.17
2022-10-21T18:26:26.555Z,76.23
2022-10-21T18:28:59.602Z,76.56
2022-10-21T18:31:29.446Z,76.71
2022-10-21T18:33:57.686Z,76.73
2022-10-21T18:36:27.336Z,76.89
2022-10-21T18:38:54.241Z,77.17
2022-10-21T18:41:21.645Z,77.36
2022-10-21T18:43:51.018Z,77.52
2022-10-21T18:46:18.979Z,77.65
2022-10-21T18:48:46.160Z,77.88
2022-10-21T18:51:15.408Z,78.03
2022-10-21T18:53:42.826Z,78.28
2022-10-21T18:56:15.239Z,78.46
2022-10-21T18:58:43.447Z,78.64
2022-10-21T19:01:11.335Z,78.91
2022-10-21T19:03:38.604Z,79.27
2022-10-21T19:06:38.428Z,79.59
2022-10-21T19:09:25.860Z,79.65
2022-10-21T19:11:53.315Z,79.92
2022-10-21T19:14:19.936Z,80.10
2022-10-21T19:16:48.438Z,80.13
2022-10-21T19:19:16.763Z,80.17
2022-10-21T19:21:43.561Z,80.33
2022-10-21T19:24:10.431Z,80.60
2022-10-21T19:26:39.949Z,80.68
2022-10-21T19:29:13.920Z,80.71
2022-10-21T19:31:41.529Z,80.88
2022-10-21T19:34:12.664Z,80.87
2022-10-21T19:36:39.491Z,80.92
2022-10-21T19:39:06.701Z,80.86
2022-10-21T19:41:33.622Z,80.86
2022-10-21T19:44:00.431Z,80.86
2022-10-21T19:46:29.874Z,80.85
2022-10-21T19:48:57.588Z,80.66
2022-10-21T19:51:25.461Z,80.40
2022-10-21T19:53:53.402Z,80.21
2022-10-21T19:56:25.535Z,80.08
2022-10-21T19:58:55.018Z,80.01
2022-10-21T20:01:25.161Z,79.99
2022-10-21T20:03:54.720Z,79.78
2022-10-21T20:06:27.132Z,79.36
2022-10-21T20:08:56.359Z,79.17
2022-10-21T20:11:24.517Z,79.06
2022-10-21T20:13:51.899Z,78.88
2022-10-21T20:16:27.919Z,78.74
2022-10-21T20:18:55.841Z,78.42
2022-10-21T20:21:23.987Z,78.21
2022-10-21T20:23:53.834Z,77.90
2022-10-21T20:26:20.625Z,77.60
2022-10-21T20:28:47.522Z,77.54
2022-10-21T20:31:15.134Z,77.45
2022-10-21T20:33:47.322Z,77.36
2022-10-21T20:36:18.740Z,77.29
2022-10-21T20:38:47.025Z,77.14
2022-10-21T20:41:18.577Z,77.00
2022-10-21T20:43:49.552Z,76.83
2022-10-21T20:46:17.776Z,76.76
2022-10-21T20:48:47.786Z,76.68
2022-10-21T20:51:24.334Z,76.70
2022-10-21T20:53:53.915Z,76.84
2022-10-21T20:56:21.543Z,76.84
2022-10-21T20:58:48.517Z,76.92
2022-10-21T21:01:21.728Z,77.38
2022-10-21T21:03:50.299Z,77.80
2022-10-21T21:06:20.568Z,78.15
2022-10-21T21:08:58.398Z,78.81
2022-10-21T21:11:46.409Z,79.69
2022-10-21T21:14:13.566Z,79.88
2022-10-21T21:16:40.333Z,80.40
2022-10-21T21:19:08.315Z,81.09
2022-10-21T21:21:36.565Z,81.58
2022-10-21T21:24:03.993Z,82.03
2022-10-21T21:26:34.265Z,82.17
2022-10-21T21:29:18.196Z,82.47
2022-10-21T21:31:45.246Z,82.76
2022-10-21T21:34:14.500Z,82.90
2022-10-21T21:36:43.275Z,83.11
2022-10-21T21:39:11.019Z,83.22
2022-10-21T21:41:37.815Z,83.44
2022-10-21T21:44:05.386Z,83.50
2022-10-21T21:46:32.169Z,83.50
2022-10-21T21:49:05.169Z,83.52
2022-10-21T21:51:35.685Z,83.47
2022-10-21T21:54:04.723Z,83.47
2022-10-21T21:56:31.352Z,83.30
2022-10-21T21:58:58.355Z,83.32
2022-10-21T22:01:27.176Z,83.34
2022-10-21T22:03:54.611Z,83.43
2022-10-21T22:08:51.870Z,83.94
2022-10-21T22:11:22.613Z,84.19
2022-10-21T22:13:49.683Z,84.43
2022-10-21T22:16:17.196Z,84.51
2022-10-21T22:18:43.980Z,84.81
2022-10-21T22:21:14.327Z,84.92
2022-10-21T22:23:41.688Z,85.00
2022-10-21T22:26:10.618Z,85.12
2022-10-21T22:28:37.416Z,85.21
2022-10-21T22:31:06.995Z,85.31
2022-10-21T22:33:34.119Z,85.41
2022-10-21T22:36:01.739Z,85.33
2022-10-21T22:38:30.892Z,85.49
2022-10-21T22:41:00.545Z,85.50
2022-10-21T22:43:28.294Z,85.48
2022-10-21T22:46:05.418Z,85.64
2022-10-21T22:48:42.399Z,85.81
2022-10-21T22:51:09.114Z,85.86
2022-10-21T22:53:36.270Z,86.15
2022-10-21T22:56:03.294Z,86.16
2022-10-21T22:58:30.412Z,86.29
2022-10-21T23:00:57.282Z,86.42
2022-10-21T23:03:24.609Z,86.54
2022-10-21T23:05:51.188Z,86.69
2022-10-21T23:08:18.865Z,86.78
2022-10-21T23:10:48.618Z,86.97
2022-10-21T23:13:16.152Z,87.18
2022-10-21T23:15:43.765Z,87.43
2022-10-21T23:18:10.713Z,87.81
2022-10-21T23:20:37.333Z,87.85
2022-10-21T23:23:04.645Z,87.86
2022-10-21T23:25:31.695Z,88.04
2022-10-21T23:27:58.428Z,88.34
2022-10-21T23:30:25.196Z,88.52
2022-10-21T23:32:51.871Z,88.77
2022-10-21T23:35:19.606Z,89.07
2022-10-21T23:37:46.516Z,89.15
2022-10-21T23:40:13.322Z,89.33
2022-10-21T23:42:42.729Z,89.36
2022-10-21T23:45:10.725Z,89.66
2022-10-21T23:47:39.186Z,89.77
2022-10-21T23:50:07.954Z,89.93
2022-10-21T23:52:35.140Z,90.08
2022-10-21T23:55:01.752Z,90.17
2022-10-21T23:57:28.535Z,90.30
2022-10-21T23:59:55.437Z,90.24
